Time;durP1;ratioP1;P1;durP2;ratioP2;P2;SDS_P1;SDS_P2;PMS_P1;PMS_P2;Temp;Humidity;BMP_temperature;BMP_pressure;BME280_temperature;BME280_humidity;BME280_pressure;Samples;Min_cycle;Max_cycle;Signal;HPM_P1;HPM_P2
2021/12/11 00:01:18;;;;;;;60.28;24.58;;;;;;;3.27;100.00;100646.69;5053962;28;20481;-77
2021/12/11 00:04:06;;;;;;;58.15;22.90;;;;;;;3.28;100.00;100649.25;5054260;28;20115;-75
2021/12/11 00:07:04;;;;;;;51.75;22.08;;;;;;;3.28;100.00;100653.66;5053657;28;20385;-74
2021/12/11 00:09:38;;;;;;;57.38;23.13;;;;;;;3.28;100.00;100659.72;4992479;28;20050;-77
2021/12/11 00:12:17;;;;;;;63.45;22.58;;;;;;;3.28;100.00;100666.72;5000816;28;20512;-74
2021/12/11 00:14:45;;;;;;;53.70;22.40;;;;;;;3.28;100.00;100670.19;5012176;28;20038;-77
2021/12/11 00:17:19;;;;;;;54.08;22.77;;;;;;;3.29;100.00;100676.31;5010495;28;20100;-77
2021/12/11 00:19:45;;;;;;;57.65;24.77;;;;;;;3.27;100.00;100691.16;5012080;28;20049;-77
2021/12/11 00:22:14;;;;;;;60.40;23.67;;;;;;;3.30;100.00;100692.88;4997776;28;20042;-77
2021/12/11 00:24:41;;;;;;;67.80;23.58;;;;;;;3.32;100.00;100696.34;4992483;28;20030;-76
2021/12/11 00:27:09;;;;;;;58.42;23.38;;;;;;;3.28;100.00;100704.22;4992107;28;20034;-77
2021/12/11 00:29:37;;;;;;;57.85;23.30;;;;;;;3.31;100.00;100713.78;4992933;28;20042;-77
2021/12/11 00:32:07;;;;;;;56.95;22.60;;;;;;;3.28;100.00;100716.47;4998442;28;20054;-76
2021/12/11 00:34:33;;;;;;;54.17;22.25;;;;;;;3.26;100.00;100718.22;5011802;28;20029;-76
2021/12/11 00:37:04;;;;;;;53.97;23.15;;;;;;;3.24;100.00;100723.50;5011473;28;20537;-75
2021/12/11 00:39:31;;;;;;;59.50;22.92;;;;;;;3.28;100.00;100719.94;4992877;28;20400;-75
2021/12/11 00:42:00;;;;;;;57.03;23.27;;;;;;;3.32;100.00;100731.22;5010146;28;20025;-77
2021/12/11 00:44:42;;;;;;;59.85;22.75;;;;;;;3.30;100.00;100740.84;4992004;28;20031;-76
2021/12/11 00:47:09;;;;;;;55.70;23.85;;;;;;;3.32;100.00;100743.44;5033420;28;20099;-77
2021/12/11 00:49:42;;;;;;;59.95;23.92;;;;;;;3.32;100.00;100748.69;5039445;28;20017;-77
2021/12/11 00:52:08;;;;;;;54.20;22.55;;;;;;;3.31;100.00;100754.78;5051781;28;20040;-77
2021/12/11 00:54:40;;;;;;;58.25;22.45;;;;;;;3.30;100.00;100755.69;5053186;28;20037;-77
2021/12/11 00:57:05;;;;;;;60.47;23.65;;;;;;;3.30;100.00;100760.91;5053316;28;20021;-77
2021/12/11 00:59:30;;;;;;;60.20;24.48;;;;;;;3.30;100.00;100764.41;5052831;28;20033;-74
2021/12/11 01:01:58;;;;;;;57.50;22.42;;;;;;;3.31;100.00;100770.50;5052952;28;20034;-76
2021/12/11 01:04:27;;;;;;;59.40;23.35;;;;;;;3.30;100.00;100779.22;5052817;28;20021;-77
2021/12/11 01:06:56;;;;;;;59.70;22.70;;;;;;;3.31;100.00;100786.22;5052833;28;20025;-77
2021/12/11 01:09:37;;;;;;;60.95;24.85;;;;;;;3.30;100.00;100784.47;5052692;28;20028;-77
2021/12/11 01:12:12;;;;;;;55.63;23.15;;;;;;;3.31;100.00;100797.53;5052680;28;20068;-76
2021/12/11 01:14:54;;;;;;;53.95;21.77;;;;;;;3.36;100.00;100800.09;5052441;28;20191;-77
2021/12/11 01:17:41;;;;;;;60.13;23.65;;;;;;;3.38;100.00;100795.69;5052526;28;20036;-76
2021/12/11 01:20:18;;;;;;;62.28;23.77;;;;;;;3.36;100.00;100806.16;5052396;28;20047;-77
2021/12/11 01:22:44;;;;;;;57.30;22.98;;;;;;;3.35;100.00;100795.72;5052645;28;20154;-75
2021/12/11 01:25:17;;;;;;;60.00;23.25;;;;;;;3.35;100.00;100796.63;5052224;28;20373;-77
2021/12/11 01:27:46;;;;;;;56.83;23.75;;;;;;;3.35;100.00;100807.09;5052745;28;20060;-76
2021/12/11 01:30:19;;;;;;;51.78;22.85;;;;;;;3.35;100.00;100811.44;5051962;28;20021;-76
2021/12/11 01:32:44;;;;;;;58.63;22.23;;;;;;;3.37;100.00;100820.16;5051986;28;20060;-77
2021/12/11 01:35:12;;;;;;;58.72;24.70;;;;;;;3.36;100.00;100819.25;5052358;28;20021;-76
2021/12/11 01:37:38;;;;;;;55.55;23.13;;;;;;;3.36;100.00;100829.72;5052518;28;20061;-75
2021/12/11 01:40:07;;;;;;;64.97;23.17;;;;;;;3.35;100.00;100832.38;5052066;28;20025;-77
2021/12/11 01:42:33;;;;;;;51.90;22.92;;;;;;;3.36;100.00;100840.19;5050578;28;20404;-76
2021/12/11 01:45:01;;;;;;;58.10;24.30;;;;;;;3.37;100.00;100841.09;5052304;28;20029;-77
2021/12/11 01:47:31;;;;;;;56.28;22.27;;;;;;;3.36;100.00;100849.81;5052506;28;20083;-77
2021/12/11 01:50:10;;;;;;;60.33;24.05;;;;;;;3.34;100.00;100862.06;5052271;28;20049;-76
2021/12/11 01:52:44;;;;;;;55.13;21.83;;;;;;;3.33;100.00;100865.59;5052298;28;20029;-76
2021/12/11 01:55:54;;;;;;;58.17;22.70;;;;;;;3.34;100.00;100864.66;5052134;28;20036;-77
2021/12/11 01:58:42;;;;;;;54.42;22.15;;;;;;;3.27;100.00;100876.97;5010510;28;20080;-76
2021/12/11 02:01:22;;;;;;;57.05;22.50;;;;;;;3.22;100.00;100874.44;4997231;28;20046;-75
2021/12/11 02:03:52;;;;;;;61.45;23.63;;;;;;;3.18;100.00;100877.97;4993196;28;20042;-74
2021/12/11 02:06:17;;;;;;;57.03;22.83;;;;;;;3.12;100.00;100878.09;5014526;28;20141;-76
2021/12/11 02:08:43;;;;;;;51.75;21.92;;;;;;;3.04;100.00;100888.63;5014444;28;20401;-77
2021/12/11 02:11:17;;;;;;;62.25;22.70;;;;;;;2.99;100.00;100894.81;5004231;28;20148;-78
2021/12/11 02:13:49;;;;;;;55.45;21.38;;;;;;;2.97;100.00;100902.69;4994829;28;20026;-77
2021/12/11 02:16:30;;;;;;;62.67;22.10;;;;;;;3.00;100.00;100904.41;4996285;28;20542;-77
2021/12/11 02:19:02;;;;;;;56.47;21.30;;;;;;;3.02;100.00;100910.44;4994608;28;20483;-76
2021/12/11 02:21:32;;;;;;;63.17;22.63;;;;;;;3.07;100.00;100919.09;5003675;28;20096;-77
2021/12/11 02:24:03;;;;;;;70.18;25.25;;;;;;;3.09;100.00;100909.50;5014134;28;20091;-77
2021/12/11 02:26:31;;;;;;;60.40;23.25;;;;;;;3.11;100.00;100920.81;5012050;28;20034;-77
2021/12/11 02:29:06;;;;;;;64.00;23.70;;;;;;;3.16;100.00;100926.88;5013422;28;20061;-77
2021/12/11 02:31:34;;;;;;;70.35;23.88;;;;;;;3.25;100.00;100933.75;5005576;28;20500;-75
2021/12/11 02:34:25;;;;;;;64.78;24.83;;;;;;;3.28;100.00;100929.31;5003053;28;20037;-77
2021/12/11 02:36:56;;;;;;;60.88;23.23;;;;;;;3.24;100.00;100937.22;5045933;28;20053;-76
2021/12/11 02:39:31;;;;;;;58.60;23.58;;;;;;;3.18;100.00;100938.16;5055266;28;20025;-76
2021/12/11 02:42:01;;;;;;;67.65;23.63;;;;;;;3.15;100.00;100934.75;5053451;28;20445;-78
2021/12/11 02:44:29;;;;;;;57.13;23.42;;;;;;;3.10;100.00;100938.25;5055584;28;20040;-77
2021/12/11 02:47:05;;;;;;;59.60;23.73;;;;;;;3.09;100.00;100946.13;5055059;28;20040;-76
2021/12/11 02:49:39;;;;;;;64.53;22.20;;;;;;;3.02;100.00;100945.34;5055550;28;20021;-73
2021/12/11 02:52:20;;;;;;;64.90;23.10;;;;;;;3.00;100.00;100956.72;5055274;28;20118;-77
2021/12/11 02:54:59;;;;;;;58.13;23.42;;;;;;;2.97;100.00;100957.63;5055885;28;20033;-77
2021/12/11 02:57:32;;;;;;;60.90;24.10;;;;;;;2.93;100.00;100954.16;5054929;28;20044;-77
2021/12/11 03:00:14;;;;;;;58.08;22.98;;;;;;;2.91;100.00;100948.06;5055548;28;20031;-74
2021/12/11 03:02:45;;;;;;;58.63;22.90;;;;;;;2.85;100.00;100958.63;5054927;28;20028;-77
2021/12/11 03:05:14;;;;;;;59.23;21.87;;;;;;;2.83;100.00;100964.75;5055353;28;20074;-76
2021/12/11 03:07:44;;;;;;;53.67;21.73;;;;;;;2.83;100.00;100955.16;5054991;28;20735;-77
2021/12/11 03:10:14;;;;;;;66.55;23.15;;;;;;;2.82;100.00;100955.19;5035158;28;20028;-76
2021/12/11 03:12:40;;;;;;;63.28;22.98;;;;;;;2.79;100.00;100969.16;5036152;28;20381;-76
2021/12/11 03:15:08;;;;;;;65.53;22.65;;;;;;;2.84;100.00;100971.69;5054060;28;20021;-77
2021/12/11 03:17:34;;;;;;;60.40;22.55;;;;;;;2.91;100.00;100960.28;5054484;28;20032;-77
2021/12/11 03:19:59;;;;;;;66.28;23.65;;;;;;;2.98;100.00;100955.84;5054560;28;20032;-77
2021/12/11 03:22:34;;;;;;;54.45;23.55;;;;;;;2.99;100.00;100968.91;5054671;28;20040;-76
2021/12/11 03:25:03;;;;;;;59.08;22.92;;;;;;;2.98;100.00;100975.06;5053780;28;20017;-76
2021/12/11 03:27:29;;;;;;;59.92;22.77;;;;;;;3.00;100.00;100973.25;5054776;28;20488;-75
2021/12/11 03:29:54;;;;;;;60.55;22.92;;;;;;;2.98;100.00;100979.41;5054318;28;20021;-77
2021/12/11 03:32:20;;;;;;;54.58;22.50;;;;;;;2.99;100.00;100978.53;5054431;28;20124;-76
2021/12/11 03:34:47;;;;;;;52.50;21.50;;;;;;;2.95;100.00;100982.91;5055016;28;20036;-77
2021/12/11 03:37:15;;;;;;;58.63;22.00;;;;;;;2.95;100.00;100988.16;5054777;28;20036;-76
2021/12/11 03:39:44;;;;;;;54.40;21.48;;;;;;;3.09;100.00;100988.00;5054290;28;20033;-76
2021/12/11 03:42:14;;;;;;;51.28;20.77;;;;;;;3.16;100.00;100994.91;5054374;28;20033;-77
2021/12/11 03:44:43;;;;;;;53.90;22.13;;;;;;;3.13;100.00;100992.31;5054708;28;20028;-77
2021/12/11 03:47:17;;;;;;;53.08;21.27;;;;;;;3.10;100.00;100994.97;5054543;28;20083;-77
2021/12/11 03:49:42;;;;;;;51.65;21.20;;;;;;;3.09;100.00;100994.09;5054550;28;20025;-76
2021/12/11 03:52:11;;;;;;;53.33;21.42;;;;;;;3.08;100.00;100996.72;5054010;28;20087;-75
2021/12/11 03:54:40;;;;;;;50.88;21.05;;;;;;;3.03;100.00;100990.69;5054043;28;20083;-77
2021/12/11 03:57:07;;;;;;;51.03;21.48;;;;;;;2.98;100.00;100990.75;5054220;28;20021;-77
2021/12/11 03:59:33;;;;;;;50.85;20.90;;;;;;;3.00;100.00;100994.19;5054269;28;20048;-76
2021/12/11 04:02:06;;;;;;;54.90;21.55;;;;;;;3.04;100.00;100995.03;5053438;28;20461;-75
2021/12/11 04:04:38;;;;;;;55.10;21.58;;;;;;;3.06;100.00;100998.50;5053718;28;20025;-74
2021/12/11 04:07:08;;;;;;;52.00;20.95;;;;;;;3.13;100.00;101005.38;5054154;28;20067;-76
2021/12/11 04:09:34;;;;;;;54.13;21.15;;;;;;;3.15;100.00;101000.16;5054314;28;20033;-77
2021/12/11 04:12:00;;;;;;;52.20;20.60;;;;;;;3.15;100.00;100994.94;5046009;28;20041;-77
2021/12/11 04:14:30;;;;;;;51.22;19.92;;;;;;;3.15;100.00;101003.63;5053966;28;20059;-78
2021/12/11 04:16:57;;;;;;;46.00;19.20;;;;;;;3.17;100.00;101001.88;5054028;28;20056;-77
2021/12/11 04:19:23;;;;;;;44.55;19.77;;;;;;;3.19;100.00;101000.09;5044245;28;20496;-77
2021/12/11 04:21:50;;;;;;;45.70;19.42;;;;;;;3.22;100.00;101014.88;5033971;28;20099;-75
2021/12/11 04:24:19;;;;;;;41.22;17.70;;;;;;;3.25;100.00;101013.09;5052538;28;20098;-77
2021/12/11 04:26:45;;;;;;;45.05;18.60;;;;;;;3.34;100.00;101006.91;5053770;28;20112;-71
2021/12/11 04:29:12;;;;;;;41.53;17.20;;;;;;;3.39;100.00;101020.78;5053582;28;20423;-77
2021/12/11 04:31:42;;;;;;;42.50;17.95;;;;;;;3.40;100.00;101016.41;5053692;28;20064;-77
2021/12/11 04:34:09;;;;;;;41.53;16.98;;;;;;;3.50;100.00;101014.56;5052026;28;20396;-76
2021/12/11 04:36:39;;;;;;;41.25;17.30;;;;;;;3.53;100.00;101030.22;5053052;28;20017;-76
2021/12/11 04:39:09;;;;;;;41.53;17.23;;;;;;;3.58;100.00;101018.81;5053118;28;20025;-77
2021/12/11 04:41:48;;;;;;;40.33;17.02;;;;;;;3.58;100.00;101021.44;5053637;28;20040;-76
2021/12/11 04:44:21;;;;;;;42.95;17.27;;;;;;;3.66;100.00;101028.31;5052472;28;20052;-76
2021/12/11 04:46:47;;;;;;;45.83;16.70;;;;;;;3.67;100.00;101041.41;5053397;28;20473;-76
2021/12/11 04:49:26;;;;;;;41.33;17.05;;;;;;;3.66;100.00;101036.16;5052897;28;20036;-77
2021/12/11 05:02:54;;;;;;;22.35;8.95;;;;;;;3.85;100.00;101036.78;5052966;28;20032;-76
2021/12/11 05:10:48;;;;;;;15.85;2.75;;;;;;;4.04;100.00;101046.13;5053295;28;20064;-77
2021/12/11 05:13:13;;;;;;;14.65;1.90;;;;;;;4.30;100.00;101054.47;5052400;28;20045;-77
2021/12/11 05:15:41;;;;;;;13.32;3.17;;;;;;;4.50;100.00;101068.19;5052610;28;20037;-74
2021/12/11 05:18:13;;;;;;;15.25;1.90;;;;;;;4.64;100.00;101067.06;5052950;28;20029;-77
2021/12/11 05:20:42;;;;;;;12.38;1.65;;;;;;;4.77;100.00;101063.38;5052654;28;20025;-75
2021/12/11 05:23:07;;;;;;;14.68;2.00;;;;;;;4.89;100.00;101060.50;5052526;28;20053;-77
2021/12/11 05:25:33;;;;;;;14.30;1.77;;;;;;;4.99;100.00;101065.63;5052367;28;20052;-73
2021/12/11 05:27:59;;;;;;;7.00;1.27;;;;;;;5.12;100.00;101058.38;5052392;28;20396;-76
2021/12/11 05:30:29;;;;;;;13.68;2.15;;;;;;;5.24;100.00;101080.00;5052714;28;20075;-74
2021/12/11 05:32:56;;;;;;;18.90;2.13;;;;;;;5.33;100.00;101070.22;5052390;28;20087;-76
2021/12/11 05:35:22;;;;;;;12.68;2.50;;;;;;;5.39;99.40;101086.72;5052081;28;20044;-76
2021/12/11 05:37:49;;;;;;;15.93;2.85;;;;;;;5.43;99.31;101084.03;5051815;28;20484;-75
2021/12/11 05:40:18;;;;;;;12.13;1.67;;;;;;;5.50;98.64;101086.53;5052737;28;20032;-75
2021/12/11 05:42:44;;;;;;;10.27;2.10;;;;;;;5.54;99.26;101097.84;5052772;28;20032;-77
2021/12/11 05:45:10;;;;;;;12.77;1.88;;;;;;;5.51;99.14;101093.50;5052199;28;20063;-76
2021/12/11 05:47:36;;;;;;;10.52;1.88;;;;;;;5.47;100.00;101098.84;5052385;28;20028;-75
2021/12/11 05:50:04;;;;;;;9.43;1.42;;;;;;;5.40;100.00;101106.84;5052034;28;20075;-73
2021/12/11 05:52:29;;;;;;;12.10;1.75;;;;;;;5.32;100.00;101105.25;5050651;28;20123;-73
2021/12/11 05:54:55;;;;;;;12.70;1.70;;;;;;;5.25;100.00;101110.59;5052381;28;20086;-76
2021/12/11 05:57:22;;;;;;;11.38;1.90;;;;;;;5.17;100.00;101112.50;5052043;28;20492;-75
2021/12/11 05:59:49;;;;;;;16.60;1.67;;;;;;;5.14;100.00;101114.31;5051794;28;20029;-75
2021/12/11 06:02:20;;;;;;;14.23;1.48;;;;;;;5.13;100.00;101126.59;5052446;28;20017;-75
2021/12/11 06:04:50;;;;;;;10.02;1.77;;;;;;;5.08;100.00;101133.69;5052348;28;20024;-76
2021/12/11 06:07:18;;;;;;;16.35;2.92;;;;;;;5.15;100.00;101132.66;5051584;28;20029;-74
2021/12/11 06:09:51;;;;;;;15.73;1.77;;;;;;;5.18;100.00;101137.88;5051581;28;20025;-75
2021/12/11 06:12:18;;;;;;;14.23;2.58;;;;;;;5.24;100.00;101148.28;5052035;28;20068;-76
2021/12/11 06:14:46;;;;;;;13.45;2.45;;;;;;;5.29;100.00;101150.81;5051821;28;20029;-75
2021/12/11 06:17:15;;;;;;;15.75;2.35;;;;;;;5.31;100.00;101148.19;5051839;28;20025;-77
2021/12/11 06:19:48;;;;;;;15.77;3.63;;;;;;;5.29;100.00;101158.69;5052033;28;20116;-75
2021/12/11 06:22:14;;;;;;;14.73;2.95;;;;;;;5.26;100.00;101171.88;5051812;28;20025;-77
2021/12/11 06:24:39;;;;;;;7.57;1.70;;;;;;;5.24;100.00;101173.66;5052271;28;20025;-75
2021/12/11 06:27:05;;;;;;;13.07;4.45;;;;;;;5.19;100.00;101189.50;5052040;28;20477;-75
2021/12/11 06:29:30;;;;;;;13.38;2.97;;;;;;;5.17;100.00;101191.28;5051761;28;20193;-75
2021/12/11 06:31:57;;;;;;;13.88;2.92;;;;;;;5.20;100.00;101209.59;5051444;28;20061;-75
2021/12/11 06:34:22;;;;;;;7.45;2.05;;;;;;;5.31;100.00;101208.56;5052293;28;20028;-76
2021/12/11 06:36:47;;;;;;;10.45;1.73;;;;;;;5.37;100.00;101211.06;5051403;28;20065;-77
2021/12/11 06:39:18;;;;;;;8.57;1.48;;;;;;;5.43;100.00;101220.63;5050578;28;20033;-75
2021/12/11 06:41:49;;;;;;;10.65;1.63;;;;;;;5.45;100.00;101226.69;5050603;28;20036;-76
2021/12/11 06:44:14;;;;;;;7.35;1.40;;;;;;;5.45;100.00;101230.22;5050966;28;20114;-76
2021/12/11 06:46:41;;;;;;;6.47;1.70;;;;;;;5.40;100.00;101238.16;5052138;28;20429;-77
2021/12/11 06:49:08;;;;;;;7.15;1.80;;;;;;;5.32;100.00;101234.81;5051609;28;20050;-77
2021/12/11 06:51:33;;;;;;;10.00;2.00;;;;;;;5.28;100.00;101238.38;5054220;28;20068;-77
2021/12/11 06:54:03;;;;;;;10.90;2.00;;;;;;;5.21;100.00;101245.47;5055042;28;20166;-77
2021/12/11 06:56:29;;;;;;;11.65;2.75;;;;;;;5.16;100.00;101249.06;5055252;28;20496;-76
2021/12/11 06:58:57;;;;;;;10.93;2.60;;;;;;;5.14;100.00;101258.72;5055208;28;20374;-77
2021/12/11 07:01:24;;;;;;;17.15;3.05;;;;;;;5.10;100.00;101265.75;5054984;28;20124;-77
2021/12/11 07:03:50;;;;;;;8.60;2.30;;;;;;;5.04;100.00;101274.59;5054114;28;20036;-77
2021/12/11 07:06:16;;;;;;;12.38;2.85;;;;;;;4.98;100.00;101276.47;5044981;28;20025;-77
2021/12/11 07:08:42;;;;;;;15.90;3.45;;;;;;;4.92;100.00;101294.03;5035132;28;20041;-77
2021/12/11 07:11:10;;;;;;;12.95;3.22;;;;;;;4.90;100.00;101287.94;5050150;28;20168;-76
2021/12/11 07:13:36;;;;;;;8.00;3.00;;;;;;;4.87;100.00;101301.09;5054213;28;20017;-76
2021/12/11 07:16:02;;;;;;;11.75;3.75;;;;;;;4.84;100.00;101300.28;5052068;28;20021;-76
2021/12/11 07:18:28;;;;;;;10.98;3.47;;;;;;;4.77;100.00;101310.00;5054514;28;20021;-76
2021/12/11 07:20:54;;;;;;;9.70;4.22;;;;;;;4.73;100.00;101313.53;5053985;28;20473;-76
2021/12/11 07:23:20;;;;;;;12.30;4.68;;;;;;;4.74;100.00;101328.38;5053838;28;20111;-77
2021/12/11 07:25:54;;;;;;;8.73;4.25;;;;;;;4.72;100.00;101323.16;5054526;28;20029;-84
2021/12/11 07:28:21;;;;;;;11.93;4.45;;;;;;;4.70;100.00;101335.41;5054645;28;20029;-83
2021/12/11 07:30:50;;;;;;;13.85;5.20;;;;;;;4.73;100.00;101334.50;5053622;28;20040;-82
2021/12/11 07:33:16;;;;;;;17.48;4.97;;;;;;;4.78;100.00;101342.34;5054393;28;20045;-83
2021/12/11 07:35:44;;;;;;;11.60;4.90;;;;;;;4.80;100.00;101351.91;5054739;28;20487;-82
2021/12/11 07:38:10;;;;;;;14.27;5.00;;;;;;;4.81;100.00;101344.91;5054591;28;20075;-82
2021/12/11 07:40:43;;;;;;;17.15;5.97;;;;;;;4.80;100.00;101361.56;5053906;28;20076;-76
2021/12/11 07:43:10;;;;;;;17.33;5.80;;;;;;;4.74;100.00;101365.13;5054657;28;20029;-77
2021/12/11 07:45:36;;;;;;;16.30;5.97;;;;;;;4.71;100.00;101367.78;5054711;28;20044;-72
2021/12/11 07:48:03;;;;;;;17.38;6.80;;;;;;;4.70;100.00;101373.91;5054413;28;20481;-77
2021/12/11 07:50:31;;;;;;;13.88;5.50;;;;;;;4.68;100.00;101383.53;5053592;28;20037;-76
2021/12/11 07:52:56;;;;;;;13.57;5.70;;;;;;;4.63;100.00;101382.72;5053384;28;20067;-77
2021/12/11 07:55:23;;;;;;;13.68;6.22;;;;;;;4.62;100.00;101394.09;5053449;28;20441;-78
2021/12/11 07:57:49;;;;;;;15.32;6.38;;;;;;;4.54;100.00;101395.06;5055360;28;20028;-78
2021/12/11 08:00:20;;;;;;;14.10;6.50;;;;;;;4.47;100.00;101408.28;5071869;28;20051;-77
2021/12/11 08:02:46;;;;;;;14.23;6.22;;;;;;;4.41;100.00;101402.22;5055972;28;20032;-78
2021/12/11 08:05:11;;;;;;;17.10;6.95;;;;;;;4.38;100.00;101419.72;5053738;28;20128;-76
2021/12/11 08:07:38;;;;;;;18.35;6.60;;;;;;;4.36;100.00;101427.59;5054379;28;20441;-75
2021/12/11 08:10:06;;;;;;;17.98;7.50;;;;;;;4.40;100.00;101424.06;5054017;28;20074;-77
2021/12/11 08:12:32;;;;;;;18.15;7.68;;;;;;;4.47;100.00;101432.72;5053779;28;20090;-78
2021/12/11 08:14:57;;;;;;;19.10;7.90;;;;;;;4.52;100.00;101435.31;5053285;28;20033;-76
2021/12/11 08:17:22;;;;;;;20.95;8.63;;;;;;;4.57;100.00;101447.50;5053637;28;20373;-74
2021/12/11 08:19:48;;;;;;;23.20;8.48;;;;;;;4.59;100.00;101436.97;5053340;28;20763;-76
2021/12/11 08:22:13;;;;;;;26.05;13.88;;;;;;;4.63;100.00;101451.81;5052960;28;20480;-77
2021/12/11 08:24:39;;;;;;;22.80;9.07;;;;;;;4.64;100.00;101460.56;5052385;28;20044;-77
2021/12/11 08:27:14;;;;;;;19.67;7.80;;;;;;;4.70;100.00;101461.34;5053521;28;20158;-77
2021/12/11 08:29:43;;;;;;;20.33;10.13;;;;;;;4.72;100.00;101464.84;5053889;28;20099;-79
2021/12/11 08:32:09;;;;;;;18.08;8.27;;;;;;;4.80;100.00;101462.13;5052998;28;20404;-78
2021/12/11 08:34:36;;;;;;;20.60;8.93;;;;;;;4.82;100.00;101477.84;5055354;28;20175;-78
2021/12/11 08:37:05;;;;;;;20.77;8.57;;;;;;;4.82;100.00;101476.13;5059155;28;20024;-79
2021/12/11 08:39:30;;;;;;;15.70;8.25;;;;;;;4.82;100.00;101473.50;5053649;28;20380;-77
2021/12/11 08:41:59;;;;;;;23.27;8.70;;;;;;;4.80;100.00;101482.25;5052699;28;20029;-78
2021/12/11 08:44:25;;;;;;;18.05;8.35;;;;;;;4.79;100.00;101483.16;5040978;28;20021;-78
2021/12/11 08:46:55;;;;;;;19.42;8.85;;;;;;;4.75;100.00;101484.94;5042330;28;20079;-76
2021/12/11 08:49:26;;;;;;;20.58;8.93;;;;;;;4.74;100.00;101494.56;5051694;28;20032;-76
2021/12/11 08:51:56;;;;;;;16.92;8.30;;;;;;;4.81;100.00;101503.22;5052936;28;20457;-77
2021/12/11 08:54:24;;;;;;;24.63;9.55;;;;;;;4.74;100.00;101509.41;5052946;28;20024;-78
2021/12/11 08:56:50;;;;;;;17.92;8.55;;;;;;;4.74;100.00;101512.03;5052894;28;20084;-76
2021/12/11 08:59:19;;;;;;;20.98;9.07;;;;;;;4.69;100.00;101517.34;5045949;28;20021;-76
2021/12/11 09:01:58;;;;;;;25.45;10.18;;;;;;;4.77;100.00;101517.28;5046404;28;20568;-77
2021/12/11 09:04:26;;;;;;;22.73;9.50;;;;;;;4.90;100.00;101528.53;5046947;28;20041;-76
2021/12/11 09:07:00;;;;;;;21.20;9.02;;;;;;;5.09;100.00;101537.06;5047502;28;20032;-77
2021/12/11 09:09:32;;;;;;;22.83;9.68;;;;;;;5.34;100.00;101537.63;5051690;28;20411;-75
2021/12/11 09:12:02;;;;;;;23.17;10.02;;;;;;;5.49;100.00;101533.13;5052204;28;20051;-75
2021/12/11 09:14:36;;;;;;;22.77;10.18;;;;;;;5.62;100.00;101528.56;5049326;28;20111;-76
2021/12/11 09:17:15;;;;;;;21.88;10.05;;;;;;;5.72;100.00;101541.56;5047347;28;20021;-77
2021/12/11 09:19:47;;;;;;;19.27;9.95;;;;;;;5.67;100.00;101539.88;5047067;28;20507;-78
2021/12/11 09:22:21;;;;;;;19.80;9.73;;;;;;;5.65;100.00;101537.28;5047780;28;20029;-77
2021/12/11 09:24:49;;;;;;;21.48;9.77;;;;;;;5.91;100.00;101547.44;5052157;28;20025;-75
2021/12/11 09:27:23;;;;;;;22.98;9.50;;;;;;;6.27;100.00;101546.09;5051728;28;20056;-76
2021/12/11 09:29:49;;;;;;;20.33;9.57;;;;;;;6.81;100.00;101547.81;5052361;28;20041;-76
2021/12/11 09:32:23;;;;;;;21.58;9.18;;;;;;;7.70;98.31;101553.13;5052194;28;20152;-74
2021/12/11 09:35:27;;;;;;;20.60;8.77;;;;;;;9.10;89.46;101556.78;5052772;28;20029;-76
2021/12/11 09:37:57;;;;;;;20.67;7.88;;;;;;;10.10;81.33;101554.78;5049681;28;20051;-75
2021/12/11 09:40:39;;;;;;;17.30;8.00;;;;;;;10.74;77.14;101562.47;5052148;28;20052;-76
2021/12/11 09:43:04;;;;;;;14.90;7.72;;;;;;;11.60;74.27;101565.63;5051584;28;20037;-71
2021/12/11 09:45:41;;;;;;;15.83;7.87;;;;;;;12.00;71.07;101573.88;5051677;28;20029;-75
2021/12/11 09:48:10;;;;;;;16.08;8.15;;;;;;;12.24;67.73;101572.91;5052391;28;20112;-71
2021/12/11 09:50:50;;;;;;;13.70;7.13;;;;;;;12.78;66.09;101575.13;5052219;28;20112;-71
2021/12/11 09:53:18;;;;;;;14.77;7.35;;;;;;;12.69;63.93;101578.19;5051887;28;20033;-74
2021/12/11 09:55:45;;;;;;;17.00;7.93;;;;;;;12.89;63.89;101578.22;5052064;28;20021;-76
2021/12/11 09:58:14;;;;;;;16.85;8.13;;;;;;;12.70;64.40;101590.53;5052002;28;20023;-76
2021/12/11 10:00:53;;;;;;;16.63;6.68;;;;;;;13.02;63.86;101585.63;5052005;28;20109;-77
2021/12/11 10:03:23;;;;;;;19.05;6.78;;;;;;;13.51;62.76;101588.81;5045375;28;20040;-73
2021/12/11 10:05:56;;;;;;;16.58;6.80;;;;;;;13.21;61.53;101593.69;5048379;28;20029;-75
2021/12/11 10:08:39;;;;;;;15.98;7.32;;;;;;;14.00;60.75;101588.38;5039398;28;20100;-72
2021/12/11 10:11:20;;;;;;;16.77;6.50;;;;;;;14.50;61.24;101594.84;5043760;28;20079;-74
2021/12/11 10:13:54;;;;;;;15.73;6.38;;;;;;;15.03;56.96;101611.78;5050049;28;20447;-74
2021/12/11 10:16:23;;;;;;;10.98;6.15;;;;;;;14.65;56.29;101611.91;5051775;28;20029;-76
2021/12/11 10:18:50;;;;;;;16.30;6.18;;;;;;;14.98;57.33;101621.81;5052207;28;20033;-76
2021/12/11 10:21:33;;;;;;;14.18;5.22;;;;;;;15.37;55.93;101619.81;5051960;28;20782;-75
2021/12/11 10:24:01;;;;;;;10.93;4.72;;;;;;;15.76;54.80;101618.66;5052425;28;20025;-82
2021/12/11 10:26:28;;;;;;;10.50;5.03;;;;;;;14.75;56.10;101626.50;5055181;28;20074;-76
2021/12/11 10:28:59;;;;;;;12.82;4.78;;;;;;;14.43;57.30;101620.06;5055577;28;20029;-77
2021/12/11 10:31:43;;;;;;;11.10;4.82;;;;;;;14.82;57.26;101628.88;5055853;28;20044;-75
2021/12/11 10:34:12;;;;;;;7.97;4.00;;;;;;;15.23;55.43;101623.25;5043242;28;20500;-76
2021/12/11 10:36:44;;;;;;;12.68;4.53;;;;;;;15.28;54.80;101625.66;5055344;28;20029;-73
2021/12/11 10:39:12;;;;;;;18.52;6.10;;;;;;;15.62;55.89;101624.72;5053022;28;20477;-75
2021/12/11 10:41:38;;;;;;;14.23;5.05;;;;;;;16.02;53.82;101630.63;5051747;28;20037;-75
2021/12/11 10:44:11;;;;;;;11.57;5.95;;;;;;;16.41;54.35;101630.25;5053284;28;20040;-74
2021/12/11 10:46:45;;;;;;;14.23;5.85;;;;;;;16.69;51.70;101640.25;5055031;28;20040;-72
2021/12/11 10:49:13;;;;;;;15.05;6.03;;;;;;;16.87;53.21;101649.88;5055507;28;20036;-74
2021/12/11 10:51:45;;;;;;;9.73;5.50;;;;;;;16.94;50.89;101646.88;5055276;28;20029;-74
2021/12/11 10:54:14;;;;;;;12.43;5.30;;;;;;;17.45;50.34;101638.47;5055336;28;20059;-75
2021/12/11 10:56:41;;;;;;;14.80;5.43;;;;;;;17.52;49.88;101648.72;5054491;28;20028;-75
2021/12/11 10:59:13;;;;;;;12.43;5.15;;;;;;;17.34;48.99;101653.38;5054719;28;20042;-72
2021/12/11 11:01:47;;;;;;;12.65;5.53;;;;;;;15.64;51.93;101656.69;5055637;28;20091;-75
2021/12/11 11:04:23;;;;;;;14.85;6.30;;;;;;;13.85;58.45;101656.50;5055253;28;20540;-77
2021/12/11 11:06:49;;;;;;;13.70;6.07;;;;;;;12.77;62.01;101662.00;5054897;28;20021;-75
2021/12/11 11:09:18;;;;;;;14.50;5.63;;;;;;;12.27;64.98;101655.09;5054357;28;20104;-76
2021/12/11 11:11:45;;;;;;;14.30;6.13;;;;;;;11.57;67.23;101670.06;5054303;28;20075;-74
2021/12/11 11:14:12;;;;;;;14.20;5.65;;;;;;;11.01;70.40;101675.53;5054880;28;20036;-76
2021/12/11 11:16:41;;;;;;;14.65;6.57;;;;;;;10.14;75.12;101671.13;5055299;28;20012;-72
2021/12/11 11:19:07;;;;;;;16.27;6.05;;;;;;;9.66;78.18;101675.09;5042442;28;20040;-72
2021/12/11 11:21:37;;;;;;;13.32;5.53;;;;;;;9.35;81.50;101675.09;5035040;28;20026;-74
2021/12/11 11:24:04;;;;;;;10.95;4.97;;;;;;;8.82;82.67;101694.91;5052557;28;20021;-76
2021/12/11 11:26:34;;;;;;;9.93;5.05;;;;;;;8.62;83.14;101673.34;5055364;28;20036;-72
2021/12/11 11:29:01;;;;;;;12.93;4.20;;;;;;;8.50;84.61;101683.31;5053918;28;20059;-74
2021/12/11 11:31:34;;;;;;;12.20;4.00;;;;;;;9.02;86.62;101685.59;5039287;28;20050;-76
2021/12/11 11:34:01;;;;;;;14.70;4.30;;;;;;;10.26;82.80;101682.25;5059286;28;20033;-74
2021/12/11 11:36:28;;;;;;;10.75;3.33;;;;;;;11.18;75.39;101685.53;5074249;28;20083;-77
2021/12/11 11:38:56;;;;;;;14.77;3.70;;;;;;;11.17;74.70;101682.03;5050735;28;20072;-75
2021/12/11 11:41:33;;;;;;;15.18;4.32;;;;;;;10.58;75.23;101691.03;5051457;28;20074;-74
2021/12/11 11:44:00;;;;;;;13.43;3.75;;;;;;;10.06;77.18;101696.06;5046471;28;20029;-75